createdAt,value
2022-12-08T00:00:21.205Z,96129.00
2022-12-08T00:01:26.340Z,96128.13
2022-12-08T00:02:27.965Z,96126.34
2022-12-08T00:03:29.649Z,96119.53
2022-12-08T00:04:51.110Z,96119.25
2022-12-08T00:06:11.587Z,96120.22
2022-12-08T00:07:31.339Z,96120.78
2022-12-08T00:09:05.306Z,96114.91
2022-12-08T00:10:39.555Z,96117.16
2022-12-08T00:11:28.895Z,96114.81
2022-12-08T00:12:30.248Z,96105.06
2022-12-08T00:13:31.902Z,96118.31
2022-12-08T00:14:35.949Z,96119.16
2022-12-08T00:15:37.341Z,96116.63
2022-12-08T00:16:38.814Z,96099.50
2022-12-08T00:17:40.335Z,96113.72
2022-12-08T00:18:41.765Z,96094.06
2022-12-08T00:19:44.220Z,96113.47
2022-12-08T00:20:45.632Z,96100.75
2022-12-08T00:21:47.501Z,96109.13
2022-12-08T00:22:48.847Z,96105.09
2022-12-08T00:23:50.229Z,96109.13
2022-12-08T00:24:51.640Z,96107.31
2022-12-08T00:25:53.212Z,96097.72
2022-12-08T00:26:54.689Z,96100.09
2022-12-08T00:27:56.103Z,96100.94
2022-12-08T00:28:57.770Z,96090.03
2022-12-08T00:29:59.210Z,96094.66
2022-12-08T00:31:06.648Z,96098.41
2022-12-08T00:32:08.260Z,96093.00
2022-12-08T00:33:10.413Z,96100.66
2022-12-08T00:34:13.776Z,96098.16
2022-12-08T00:35:18.287Z,96098.00
2022-12-08T00:36:19.850Z,96097.31
2022-12-08T00:37:21.194Z,96090.47
2022-12-08T00:38:22.637Z,96082.25
2022-12-08T00:39:24.154Z,96089.22
2022-12-08T00:40:30.052Z,96094.09
2022-12-08T00:41:50.016Z,96090.34
2022-12-08T00:42:51.622Z,96094.94
2022-12-08T00:43:53.033Z,96091.44
2022-12-08T00:44:54.563Z,96094.66
2022-12-08T00:45:56.528Z,96090.63
2022-12-08T00:46:58.083Z,96087.53
2022-12-08T00:47:59.598Z,96094.22
2022-12-08T00:49:01.007Z,96098.56
2022-12-08T00:50:02.781Z,96097.84
2022-12-08T00:51:04.557Z,96084.06
2022-12-08T00:52:06.016Z,96087.41
2022-12-08T00:53:07.444Z,96079.88
2022-12-08T00:54:09.056Z,96086.44
2022-12-08T00:55:10.426Z,96086.44
2022-12-08T00:56:11.809Z,96081.66
2022-12-08T00:57:13.381Z,96095.91
2022-12-08T00:58:17.668Z,96094.78
2022-12-08T00:59:19.239Z,96098.41
2022-12-08T01:00:20.834Z,96082.25
2022-12-08T01:01:22.459Z,96092.28
2022-12-08T01:02:24.905Z,96084.59
2022-12-08T01:03:26.584Z,96087.25
2022-12-08T01:04:28.032Z,96088.34
2022-12-08T01:05:29.431Z,96092.28
2022-12-08T01:06:31.374Z,96076.94
2022-12-08T01:07:32.765Z,96094.09
2022-12-08T01:08:36.313Z,96095.75
2022-12-08T01:09:38.037Z,96080.41
2022-12-08T01:10:39.787Z,96090.63
2022-12-08T01:11:41.448Z,96078.50
2022-12-08T01:12:43.019Z,96093.97
2022-12-08T01:13:45.464Z,96091.44
2022-12-08T01:14:47.031Z,96081.53
2022-12-08T01:15:48.597Z,96085.59
2022-12-08T01:16:50.288Z,96082.25
2022-12-08T01:17:51.909Z,96090.47
2022-12-08T01:18:54.089Z,96093.00
2022-12-08T01:19:55.571Z,96088.41
2022-12-08T01:21:05.791Z,96052.53
2022-12-08T01:22:07.299Z,96089.34
2022-12-08T01:23:08.837Z,96076.94
2022-12-08T01:24:15.478Z,96076.94
2022-12-08T01:25:16.922Z,96076.94
2022-12-08T01:26:19.439Z,96094.53
2022-12-08T01:27:20.952Z,96089.34
2022-12-08T01:28:22.332Z,96070.94
2022-12-08T01:29:23.756Z,96081.28
2022-12-08T01:30:25.941Z,96086.16
2022-12-08T01:31:30.654Z,96083.63
2022-12-08T01:32:32.034Z,96093.97
2022-12-08T01:33:33.439Z,96084.75
2022-12-08T01:34:34.960Z,96092.16
2022-12-08T01:35:36.399Z,96085.19
2022-12-08T01:36:38.558Z,96087.97
2022-12-08T01:37:40.203Z,96089.66
2022-12-08T01:38:41.605Z,96077.66
2022-12-08T01:39:43.143Z,96082.97
2022-12-08T01:40:44.824Z,96091.19
2022-12-08T01:41:47.615Z,96073.47
2022-12-08T01:42:50.119Z,96082.81
2022-12-08T01:43:59.855Z,96085.31
2022-12-08T01:45:04.933Z,96084.34
2022-12-08T01:46:06.495Z,96067.47
2022-12-08T01:47:08.797Z,96076.66
2022-12-08T01:48:30.439Z,96083.38
2022-12-08T01:49:39.209Z,96081.72
2022-12-08T01:50:42.584Z,96078.09
2022-12-08T01:51:46.650Z,96079.78
2022-12-08T01:53:04.879Z,96062.75
2022-12-08T01:54:07.816Z,96079.50
2022-12-08T01:55:17.532Z,96072.91
2022-12-08T01:56:28.316Z,96078.78
2022-12-08T01:57:36.459Z,96079.63
2022-12-08T01:58:41.580Z,96071.25
2022-12-08T01:59:51.103Z,96080.84
2022-12-08T02:00:52.614Z,96074.75
2022-12-08T02:01:54.663Z,96077.94
2022-12-08T02:03:02.832Z,96076.56
2022-12-08T02:04:05.302Z,96076.41
2022-12-08T02:05:07.333Z,96063.72
2022-12-08T02:06:09.844Z,96078.91
2022-12-08T02:07:14.044Z,96050.63
2022-12-08T02:08:15.873Z,96059.81
2022-12-08T02:09:18.132Z,96065.69
2022-12-08T02:10:21.978Z,96065.53
2022-12-08T02:11:23.538Z,96053.44
2022-12-08T02:12:25.320Z,96040.72
2022-12-08T02:13:27.093Z,96052.59
2022-12-08T02:14:28.518Z,96047.56
2022-12-08T02:15:54.596Z,96048.84
2022-12-08T02:17:12.745Z,96051.63
2022-12-08T02:18:42.683Z,96048.13
2022-12-08T02:19:47.040Z,96051.63
2022-12-08T02:20:52.966Z,96046.59
2022-12-08T02:22:20.467Z,96047.31
2022-12-08T02:23:33.723Z,96045.63
2022-12-08T02:24:40.731Z,96052.19
2022-12-08T02:25:54.274Z,96045.06
2022-12-08T02:27:10.519Z,96043.94
2022-12-08T02:28:48.267Z,96028.50
2022-12-08T02:30:06.142Z,96044.66
2022-12-08T02:31:19.903Z,96037.44
2022-12-08T02:33:02.677Z,96032.16
2022-12-08T02:34:36.148Z,96037.44
2022-12-08T02:35:56.084Z,96031.28
2022-12-08T02:37:05.705Z,96028.78
2022-12-08T02:38:28.307Z,96027.69
2022-12-08T02:39:44.390Z,96031.28
2022-12-08T02:41:01.797Z,96026.13
2022-12-08T02:42:09.179Z,96034.78
2022-12-08T02:43:17.147Z,96032.81
2022-12-08T02:44:41.435Z,95993.38
2022-12-08T02:45:52.594Z,96025.56
2022-12-08T02:47:26.987Z,96025.44
2022-12-08T02:48:29.309Z,96032.97
2022-12-08T02:49:35.387Z,96029.50
2022-12-08T02:50:36.790Z,96014.72
2022-12-08T02:51:38.201Z,96025.03
2022-12-08T02:52:45.745Z,96023.22
2022-12-08T02:53:48.354Z,96016.91
2022-12-08T02:55:02.227Z,96030.31
2022-12-08T02:56:17.111Z,96030.31
2022-12-08T02:57:36.187Z,96022.38
2022-12-08T02:59:19.476Z,96026.84
2022-12-08T03:00:23.675Z,96022.53
2022-12-08T03:01:49.329Z,96023.50
2022-12-08T03:03:09.491Z,96013.72
2022-12-08T03:04:22.429Z,96026.00
2022-12-08T03:05:32.685Z,96014.59
2022-12-08T03:06:38.516Z,96020.13
2022-12-08T03:07:55.904Z,96019.03
2022-12-08T03:09:10.860Z,96012.34
2022-12-08T03:10:29.860Z,96019.16
2022-12-08T03:11:40.666Z,96017.50
2022-12-08T03:12:56.736Z,96011.09
2022-12-08T03:14:01.640Z,96010.25
2022-12-08T03:15:09.578Z,96010.25
2022-12-08T03:16:14.944Z,96006.75
2022-12-08T03:17:20.230Z,95993.25
2022-12-08T03:18:26.519Z,95999.94
2022-12-08T03:19:34.467Z,96001.91
2022-12-08T03:20:36.112Z,95994.78
2022-12-08T03:21:39.523Z,95993.97
2022-12-08T03:22:42.060Z,95998.16
2022-12-08T03:23:46.503Z,95999.41
2022-12-08T03:24:49.321Z,95992.44
2022-12-08T03:25:58.472Z,95985.47
2022-12-08T03:27:04.049Z,95991.47
2022-12-08T03:28:06.247Z,95982.81
2022-12-08T03:29:08.023Z,95992.00
2022-12-08T03:30:10.493Z,95981.56
2022-12-08T03:31:14.505Z,95987.41
2022-12-08T03:33:00.488Z,95990.22
2022-12-08T03:34:03.073Z,95971.13
2022-12-08T03:35:09.533Z,95988.38
2022-12-08T03:36:12.927Z,95979.47
2022-12-08T03:37:14.966Z,95980.44
2022-12-08T03:38:21.219Z,95980.19
2022-12-08T03:39:22.558Z,95979.34
2022-12-08T03:40:24.060Z,95981.88
2022-12-08T03:41:25.564Z,95979.78
2022-12-08T03:42:27.012Z,95979.34
2022-12-08T03:43:28.491Z,95973.47
2022-12-08T03:44:30.077Z,95980.31
2022-12-08T03:45:31.693Z,95968.19
2022-12-08T03:46:33.053Z,95964.72
2022-12-08T03:47:34.397Z,95965.97
2022-12-08T03:48:35.731Z,95971.69
2022-12-08T03:49:40.032Z,95970.84
2022-12-08T03:50:41.398Z,95961.94
2022-12-08T03:51:42.853Z,95964.56
2022-12-08T03:52:44.222Z,95959.44
2022-12-08T03:53:46.398Z,95959.28
2022-12-08T03:54:48.296Z,95953.00
2022-12-08T03:55:49.680Z,95953.44
2022-12-08T03:56:51.139Z,95954.44
2022-12-08T03:57:52.690Z,95955.09
2022-12-08T03:58:54.841Z,95956.94
2022-12-08T03:59:56.185Z,95960.41
2022-12-08T04:00:57.541Z,95952.03
2022-12-08T04:02:02.393Z,95968.19
2022-12-08T04:03:04.576Z,95953.44
2022-12-08T04:04:06.156Z,95948.56
2022-12-08T04:05:07.982Z,95961.94
2022-12-08T04:06:09.371Z,95957.75
2022-12-08T04:07:10.909Z,95957.91
2022-12-08T04:08:12.323Z,95961.50
2022-12-08T04:09:14.724Z,95960.69
2022-12-08T04:10:16.407Z,95962.22
2022-12-08T04:11:21.585Z,95951.34
2022-12-08T04:12:23.076Z,95960.41
2022-12-08T04:13:24.604Z,95951.78
2022-12-08T04:14:25.981Z,95964.16
2022-12-08T04:15:27.528Z,95946.19
2022-12-08T04:16:29.172Z,95957.91
2022-12-08T04:17:30.612Z,95953.44
2022-12-08T04:18:32.680Z,95952.31
2022-12-08T04:19:34.154Z,95949.81
2022-12-08T04:20:40.016Z,95949.25
2022-12-08T04:21:41.351Z,95955.97
2022-12-08T04:22:42.788Z,95951.63
2022-12-08T04:23:48.409Z,95949.00
2022-12-08T04:24:49.837Z,95952.47
2022-12-08T04:25:52.578Z,95953.31
2022-12-08T04:26:54.044Z,95954.28
2022-12-08T04:27:56.424Z,95940.06
2022-12-08T04:28:57.894Z,95945.78
2022-12-08T04:29:59.246Z,95951.78
2022-12-08T04:31:00.908Z,95953.44
2022-12-08T04:32:02.353Z,95948.28
2022-12-08T04:33:03.769Z,95950.78
2022-12-08T04:34:05.327Z,95953.44
2022-12-08T04:35:06.912Z,95946.59
2022-12-08T04:36:08.880Z,95949.13
2022-12-08T04:37:10.230Z,95943.84
2022-12-08T04:38:11.829Z,95943.69
2022-12-08T04:39:13.321Z,95938.81
2022-12-08T04:40:14.872Z,95940.34
2022-12-08T04:41:16.345Z,95948.13
2022-12-08T04:42:17.756Z,95949.97
2022-12-08T04:43:19.178Z,95935.59
2022-12-08T04:44:20.595Z,95925.31
2022-12-08T04:45:22.132Z,95944.66
2022-12-08T04:46:23.585Z,95935.06
2022-12-08T04:47:25.152Z,95942.16
2022-12-08T04:48:26.558Z,95940.34
2022-12-08T04:49:28.027Z,95932.56
2022-12-08T04:50:29.384Z,95938.56
2022-12-08T04:51:30.730Z,95938.00
2022-12-08T04:54:01.122Z,95936.03
2022-12-08T04:55:03.404Z,95929.09
2022-12-08T04:56:05.255Z,95939.53
2022-12-08T04:57:09.547Z,95934.09
2022-12-08T04:58:16.635Z,95934.09
2022-12-08T04:59:18.076Z,95932.56
2022-12-08T05:00:19.759Z,95930.47
2022-12-08T05:01:21.220Z,95937.44
2022-12-08T05:02:22.868Z,95918.75
2022-12-08T05:03:28.465Z,95936.44
2022-12-08T05:04:33.962Z,95937.28
2022-12-08T05:05:35.605Z,95940.75
2022-12-08T05:06:37.033Z,95937.28
2022-12-08T05:07:38.620Z,95932.16
2022-12-08T05:08:41.126Z,95930.47
2022-12-08T05:09:42.971Z,95905.25
2022-12-08T05:10:44.378Z,95925.00
2022-12-08T05:11:49.144Z,95927.66
2022-12-08T05:12:50.776Z,95927.25
2022-12-08T05:13:52.144Z,95921.38
2022-12-08T05:14:53.485Z,95927.75
2022-12-08T05:15:54.889Z,95924.84
2022-12-08T05:16:56.596Z,95911.47
2022-12-08T05:17:58.128Z,95913.69
2022-12-08T05:18:59.546Z,95923.16
2022-12-08T05:20:01.412Z,95920.81
2022-12-08T05:21:04.374Z,95924.41
2022-12-08T05:22:05.987Z,95908.41
2022-12-08T05:23:07.371Z,95917.44
2022-12-08T05:24:09.380Z,95905.78
2022-12-08T05:25:10.983Z,95924.41
2022-12-08T05:26:12.415Z,95922.06
2022-12-08T05:27:13.770Z,95911.47
2022-12-08T05:28:40.330Z,95924.28
2022-12-08T05:29:36.560Z,95917.44
2022-12-08T05:30:37.896Z,95925.13
2022-12-08T05:31:39.488Z,95903.13
2022-12-08T05:32:41.069Z,95922.59
2022-12-08T05:33:43.590Z,95932.19
2022-12-08T05:34:44.994Z,95920.66
2022-12-08T05:35:46.451Z,95914.25
2022-12-08T05:36:48.156Z,95932.91
2022-12-08T05:37:49.554Z,95924.13
2022-12-08T05:38:50.983Z,95923.72
2022-12-08T05:39:52.428Z,95921.38
2022-12-08T05:40:53.976Z,95917.19
2022-12-08T05:41:55.397Z,95924.59
2022-12-08T05:42:56.776Z,95903.69
2022-12-08T05:43:58.197Z,95922.09
2022-12-08T05:44:59.776Z,95913.75
2022-12-08T05:46:01.602Z,95913.22
2022-12-08T05:47:03.248Z,95923.22
2022-12-08T05:48:04.903Z,95915.16
2022-12-08T05:49:06.270Z,95929.06
2022-12-08T05:50:08.076Z,95923.78
2022-12-08T05:51:24.208Z,95912.63
2022-12-08T05:52:25.633Z,95922.66
2022-12-08T05:53:27.188Z,95921.00
2022-12-08T05:54:28.700Z,95921.69
2022-12-08T05:55:30.143Z,95919.03
2022-12-08T05:56:35.076Z,95916.97
2022-12-08T05:57:36.463Z,95916.81
2022-12-08T05:58:37.832Z,95918.22
2022-12-08T05:59:39.383Z,95909.84
2022-12-08T06:00:41.677Z,95918.91
2022-12-08T06:01:43.208Z,95912.22
2022-12-08T06:02:48.614Z,95919.19
2022-12-08T06:03:50.829Z,95919.91
2022-12-08T06:04:52.264Z,95918.78
2022-12-08T06:05:53.682Z,95916.66
2022-12-08T06:06:55.821Z,95918.34
2022-12-08T06:07:57.298Z,95922.09
2022-12-08T06:08:58.765Z,95916.66
2022-12-08T06:10:00.204Z,95903.88
2022-12-08T06:11:01.738Z,95896.50
2022-12-08T06:12:03.889Z,95920.97
2022-12-08T06:13:05.405Z,95907.63
2022-12-08T06:14:11.992Z,95916.53
2022-12-08T06:15:14.736Z,95917.78
2022-12-08T06:16:17.079Z,95912.78
2022-12-08T06:17:18.524Z,95910.13
2022-12-08T06:18:22.833Z,95909.56
2022-12-08T06:19:24.257Z,95914.16
2022-12-08T06:20:25.766Z,95922.66
2022-12-08T06:21:27.119Z,95911.38
2022-12-08T06:22:29.110Z,95900.66
2022-12-08T06:23:30.806Z,95917.53
2022-12-08T06:24:32.177Z,95920.56
2022-12-08T06:25:33.504Z,95920.31
2022-12-08T06:26:36.059Z,95912.09
2022-12-08T06:27:40.289Z,95917.09
2022-12-08T06:28:42.904Z,95903.75
2022-12-08T06:29:44.356Z,95913.22
2022-12-08T06:30:45.916Z,95911.41
2022-12-08T06:31:47.462Z,95888.97
2022-12-08T06:32:49.040Z,95920.00
2022-12-08T06:33:50.458Z,95922.41
2022-12-08T06:34:52.107Z,95922.53
2022-12-08T06:35:53.508Z,95920.44
2022-12-08T06:36:54.943Z,95922.94
2022-12-08T06:37:56.818Z,95923.66
2022-12-08T06:38:58.501Z,95922.81
2022-12-08T06:39:59.989Z,95915.56
2022-12-08T06:41:01.687Z,95911.09
2022-12-08T06:42:22.413Z,95903.03
2022-12-08T06:43:24.851Z,95913.47
2022-12-08T06:44:29.863Z,95897.59
2022-12-08T06:45:31.357Z,95906.25
2022-12-08T06:46:32.838Z,95906.81
2022-12-08T06:47:34.855Z,95920.72
2022-12-08T06:48:36.215Z,95922.25
2022-12-08T06:49:41.627Z,95918.47
2022-12-08T06:50:43.761Z,95908.88
2022-12-08T06:51:45.219Z,95920.72
2022-12-08T06:52:57.040Z,95910.94
2022-12-08T06:54:04.400Z,95920.72
2022-12-08T06:55:06.092Z,95924.03
2022-12-08T06:56:08.213Z,95916.09
2022-12-08T06:57:09.739Z,95923.22
2022-12-08T06:58:13.039Z,95925.88
2022-12-08T06:59:14.469Z,95909.44
2022-12-08T07:00:16.470Z,95925.16
2022-12-08T07:01:18.010Z,95919.31
2022-12-08T07:02:23.005Z,95907.63
2022-12-08T07:03:24.414Z,95905.97
2022-12-08T07:04:25.849Z,95921.84
2022-12-08T07:05:27.275Z,95921.13
2022-12-08T07:06:28.711Z,95912.38
2022-12-08T07:07:30.152Z,95919.03
2022-12-08T07:08:33.399Z,95917.66
2022-12-08T07:09:35.005Z,95926.72
2022-12-08T07:10:37.159Z,95932.84
2022-12-08T07:11:39.411Z,95920.56
2022-12-08T07:12:40.852Z,95926.84
2022-12-08T07:13:45.113Z,95920.00
2022-12-08T07:14:46.494Z,95915.97
2022-12-08T07:15:47.866Z,95910.84
2022-12-08T07:16:49.439Z,95927.84
2022-12-08T07:17:54.962Z,95927.13
2022-12-08T07:19:00.953Z,95914.31
2022-12-08T07:20:02.794Z,95931.59
2022-12-08T07:21:06.396Z,95921.28
2022-12-08T07:22:07.971Z,95924.22
2022-12-08T07:23:09.521Z,95909.16
2022-12-08T07:24:11.505Z,95918.22
2022-12-08T07:25:13.044Z,95907.34
2022-12-08T07:26:14.707Z,95921.97
2022-12-08T07:27:16.074Z,95920.72
2022-12-08T07:28:17.497Z,95915.72
2022-12-08T07:29:24.633Z,95926.84
2022-12-08T07:30:27.710Z,95921.69
2022-12-08T07:31:29.372Z,95913.47
2022-12-08T07:32:30.738Z,95926.84
2022-12-08T07:33:33.447Z,95920.44
2022-12-08T07:34:35.064Z,95922.94
2022-12-08T07:35:36.608Z,95929.19
2022-12-08T07:36:38.140Z,95912.22
2022-12-08T07:37:39.691Z,95936.72
2022-12-08T07:38:41.885Z,95930.72
2022-12-08T07:39:43.278Z,95934.91
2022-12-08T07:40:44.663Z,95926.16
2022-12-08T07:41:46.136Z,95919.88
2022-12-08T07:42:47.519Z,95929.75
2022-12-08T07:43:51.760Z,95937.56
2022-12-08T07:44:53.192Z,95931.44
2022-12-08T07:45:54.654Z,95921.41
2022-12-08T07:46:56.333Z,95918.63
2022-12-08T07:47:57.741Z,95911.13
2022-12-08T07:49:00.085Z,95925.31
2022-12-08T07:50:01.909Z,95931.59
2022-12-08T07:51:05.429Z,95927.69
2022-12-08T07:52:06.845Z,95924.31
2022-12-08T07:53:08.691Z,95923.91
2022-12-08T07:54:13.522Z,95928.25
2022-12-08T07:55:15.196Z,95924.63
2022-12-08T07:56:16.810Z,95920.31
2022-12-08T07:57:18.385Z,95922.09
2022-12-08T07:58:19.830Z,95916.69
2022-12-08T07:59:21.237Z,95918.38
2022-12-08T08:00:23.202Z,95917.38
2022-12-08T08:01:27.332Z,95922.41
2022-12-08T08:02:28.961Z,95919.75
2022-12-08T08:03:30.651Z,95912.63
2022-12-08T08:04:32.065Z,95916.97
2022-12-08T08:05:33.490Z,95920.44
2022-12-08T08:06:36.946Z,95902.34
2022-12-08T08:07:41.941Z,95919.31
2022-12-08T08:08:43.556Z,95916.53
2022-12-08T08:09:45.684Z,95899.41
2022-12-08T08:10:47.560Z,95905.97
2022-12-08T08:12:14.275Z,95909.13
2022-12-08T08:13:10.264Z,95891.06
2022-12-08T08:14:12.293Z,95895.50
2022-12-08T08:15:13.926Z,95896.34
2022-12-08T08:16:18.201Z,95899.56
2022-12-08T08:17:19.798Z,95900.53
2022-12-08T08:18:21.592Z,95893.97
2022-12-08T08:19:23.135Z,95904.13
2022-12-08T08:20:24.505Z,95885.63
2022-12-08T08:21:45.165Z,95900.63
2022-12-08T08:22:49.633Z,95899.09
2022-12-08T08:23:51.144Z,95893.56
2022-12-08T08:24:53.508Z,95896.47
2022-12-08T08:25:54.932Z,95900.53
2022-12-08T08:26:56.462Z,95901.19
2022-12-08T08:27:57.952Z,95897.56
2022-12-08T08:28:59.442Z,95890.19
2022-12-08T08:30:01.132Z,95902.88
2022-12-08T08:31:02.898Z,95903.69
2022-12-08T08:32:04.429Z,95904.53
2022-12-08T08:33:05.839Z,95904.69
2022-12-08T08:34:07.314Z,95903.56
2022-12-08T08:35:09.315Z,95900.22
2022-12-08T08:36:11.518Z,95893.25
2022-12-08T08:37:13.004Z,95897.28
2022-12-08T08:38:14.588Z,95891.47
2022-12-08T08:39:16.110Z,95890.75
2022-12-08T08:40:18.058Z,95903.13
2022-12-08T08:41:19.455Z,95904.81
2022-12-08T08:42:20.961Z,95905.94
2022-12-08T08:43:37.897Z,95870.28
2022-12-08T08:44:40.028Z,95907.03
2022-12-08T08:45:41.429Z,95902.56
2022-12-08T08:46:43.090Z,95906.06
2022-12-08T08:47:44.645Z,95895.19
2022-12-08T08:48:46.184Z,95894.78
2022-12-08T08:49:47.777Z,95904.38
2022-12-08T08:50:49.177Z,95898.38
2022-12-08T08:51:51.127Z,95902.41
2022-12-08T08:52:52.813Z,95904.66
2022-12-08T08:53:54.208Z,95905.34
2022-12-08T08:54:55.561Z,95896.72
2022-12-08T08:55:56.889Z,95900.88
2022-12-08T08:57:02.603Z,95894.47
2022-12-08T08:58:04.004Z,95896.72
2022-12-08T08:59:05.583Z,95895.59
2022-12-08T09:00:10.134Z,95902.13
2022-12-08T09:01:19.806Z,95901.13
2022-12-08T09:02:21.789Z,95895.56
2022-12-08T09:03:23.308Z,95879.69
2022-12-08T09:04:25.799Z,95891.25
2022-12-08T09:05:27.263Z,95900.88
2022-12-08T09:06:28.880Z,95881.06
2022-12-08T09:07:30.730Z,95893.75
2022-12-08T09:08:32.234Z,95892.63
2022-12-08T09:09:33.652Z,95884.28
2022-12-08T09:10:35.152Z,95890.94
2022-12-08T09:11:37.045Z,95880.34
2022-12-08T09:12:42.354Z,95888.03
2022-12-08T09:13:44.150Z,95889.56
2022-12-08T09:14:45.957Z,95883.41
2022-12-08T09:15:47.354Z,95887.88
2022-12-08T09:16:48.848Z,95889.41
2022-12-08T09:17:54.187Z,95872.13
2022-12-08T09:18:56.455Z,95888.44
2022-12-08T09:19:57.852Z,95857.63
2022-12-08T09:21:06.863Z,95875.59
2022-12-08T09:22:08.276Z,95871.72
2022-12-08T09:23:10.034Z,95871.84
2022-12-08T09:24:15.643Z,95865.97
2022-12-08T09:25:17.286Z,95875.91
2022-12-08T09:26:22.223Z,95874.09
2022-12-08T09:27:23.721Z,95874.78
2022-12-08T09:28:28.735Z,95868.78
2022-12-08T09:29:35.608Z,95863.75
2022-12-08T09:30:37.687Z,95876.31
2022-12-08T09:31:39.592Z,95870.47
2022-12-08T09:32:41.066Z,95878.97
2022-12-08T09:33:43.495Z,95875.06
2022-12-08T09:34:49.028Z,95866.41
2022-12-08T09:35:53.469Z,95867.22
2022-12-08T09:36:58.018Z,95853.88
2022-12-08T09:37:59.464Z,95859.72
2022-12-08T09:39:00.887Z,95880.75
2022-12-08T09:40:02.517Z,95880.59
2022-12-08T09:41:16.313Z,95883.25
2022-12-08T09:42:32.717Z,95875.19
2022-12-08T09:43:51.623Z,95884.94
2022-12-08T09:45:04.840Z,95875.03
2022-12-08T09:46:09.481Z,95875.47
2022-12-08T09:47:23.139Z,95876.56
2022-12-08T09:48:32.792Z,95866.38
2022-12-08T09:49:41.668Z,95876.56
2022-12-08T09:50:56.833Z,95871.97
2022-12-08T09:51:58.698Z,95869.75
2022-12-08T09:53:17.838Z,95858.91
2022-12-08T09:54:24.139Z,95859.72
2022-12-08T09:55:45.279Z,95874.72
2022-12-08T09:56:49.069Z,95867.63
2022-12-08T09:58:00.499Z,95856.09
2022-12-08T09:59:20.715Z,95879.06
2022-12-08T10:00:23.379Z,95878.09
2022-12-08T10:01:29.810Z,95868.47
2022-12-08T10:02:31.487Z,95853.72
2022-12-08T10:03:33.060Z,95855.78
2022-12-08T10:04:37.400Z,95864.00
2022-12-08T10:05:46.618Z,95852.16
2022-12-08T10:06:58.731Z,95866.50
2022-12-08T10:08:06.170Z,95858.56
2022-12-08T10:09:26.275Z,95853.09
2022-12-08T10:10:50.091Z,95852.41
2022-12-08T10:12:00.692Z,95844.06
2022-12-08T10:13:06.779Z,95853.09
2022-12-08T10:14:14.470Z,95858.41
2022-12-08T10:15:51.798Z,95850.63
2022-12-08T10:17:05.014Z,95848.25
2022-12-08T10:18:16.882Z,95831.94
2022-12-08T10:19:21.233Z,95852.28
2022-12-08T10:20:26.003Z,95843.91
2022-12-08T10:21:30.164Z,95842.13
2022-12-08T10:22:38.696Z,95850.31
2022-12-08T10:23:47.184Z,95846.13
2022-12-08T10:25:15.646Z,95846.84
2022-12-08T10:26:19.851Z,95838.56
2022-12-08T10:27:24.360Z,95843.72
2022-12-08T10:28:25.894Z,95833.59
2022-12-08T10:29:28.015Z,95836.78
2022-12-08T10:30:31.789Z,95843.06
2022-12-08T10:31:33.441Z,95840.41
2022-12-08T10:32:35.846Z,95829.56
2022-12-08T10:33:37.186Z,95844.72
2022-12-08T10:34:59.591Z,95838.56
2022-12-08T10:36:04.938Z,95837.91
2022-12-08T10:37:10.069Z,95835.25
2022-12-08T10:38:34.988Z,95834.94
2022-12-08T10:39:46.840Z,95836.78
2022-12-08T10:40:51.375Z,95831.59
2022-12-08T10:41:52.923Z,95830.53
2022-12-08T10:42:57.941Z,95827.91
2022-12-08T10:44:01.831Z,95833.84
2022-12-08T10:45:09.429Z,95830.66
2022-12-08T10:46:17.140Z,95831.66
2022-12-08T10:47:22.105Z,95835.28
2022-12-08T10:48:33.090Z,95827.78
2022-12-08T10:49:35.900Z,95819.28
2022-12-08T10:50:52.653Z,95822.47
2022-12-08T10:51:54.060Z,95820.81
2022-12-08T10:53:07.248Z,95823.47
2022-12-08T10:54:28.211Z,95811.63
2022-12-08T10:55:40.329Z,95818.03
2022-12-08T10:56:54.752Z,95825.44
2022-12-08T10:57:56.322Z,95817.50
2022-12-08T10:59:14.980Z,95814.00
2022-12-08T11:00:27.911Z,95817.50
2022-12-08T11:01:37.921Z,95808.69
2022-12-08T11:02:52.892Z,95807.88
2022-12-08T11:03:58.876Z,95812.44
2022-12-08T11:05:00.449Z,95806.59
2022-12-08T11:06:12.255Z,95810.09
2022-12-08T11:07:22.100Z,95803.28
2022-12-08T11:08:24.096Z,95806.75
2022-12-08T11:09:53.127Z,95794.94
2022-12-08T11:10:54.999Z,95798.41
2022-12-08T11:12:08.663Z,95790.91
2022-12-08T11:13:19.050Z,95794.09
2022-12-08T11:14:46.888Z,95787.81
2022-12-08T11:15:53.686Z,95785.75
2022-12-08T11:17:18.015Z,95788.28
2022-12-08T11:18:30.902Z,95786.75
2022-12-08T11:19:37.481Z,95783.41
2022-12-08T11:20:41.885Z,95768.41
2022-12-08T11:21:43.896Z,95782.16
2022-12-08T11:22:51.190Z,95785.66
2022-12-08T11:23:52.623Z,95786.78
2022-12-08T11:25:00.044Z,95783.28
2022-12-08T11:26:07.158Z,95781.63
2022-12-08T11:27:08.931Z,95769.63
2022-12-08T11:28:11.077Z,95770.66
2022-12-08T11:29:13.167Z,95783.72
2022-12-08T11:30:22.420Z,95775.78
2022-12-08T11:31:44.266Z,95773.41
2022-12-08T11:32:58.016Z,95772.44
2022-12-08T11:34:00.628Z,95756.47
2022-12-08T11:35:07.489Z,95768.41
2022-12-08T11:36:14.467Z,95769.09
2022-12-08T11:37:29.968Z,95753.53
2022-12-08T11:38:42.075Z,95768.56
2022-12-08T11:39:49.294Z,95767.56
2022-12-08T11:40:55.413Z,95776.38
2022-12-08T11:41:58.711Z,95751.75
2022-12-08T11:43:26.260Z,95772.75
2022-12-08T11:44:49.372Z,95770.38
2022-12-08T11:45:57.589Z,95768.69
2022-12-08T11:47:08.055Z,95768.56
2022-12-08T11:48:16.608Z,95769.69
2022-12-08T11:49:18.828Z,95767.06
2022-12-08T11:50:32.822Z,95760.91
2022-12-08T11:52:12.944Z,95766.19
2022-12-08T11:53:24.527Z,95758.56
2022-12-08T11:54:25.875Z,95759.94
2022-12-08T11:55:45.198Z,95764.69
2022-12-08T11:56:51.332Z,95766.19
2022-12-08T11:57:55.193Z,95764.53
2022-12-08T11:59:01.528Z,95751.75
2022-12-08T12:00:06.235Z,95757.44
2022-12-08T12:01:18.608Z,95761.06
2022-12-08T12:02:24.378Z,95757.44
2022-12-08T12:03:34.383Z,95760.91
2022-12-08T12:04:49.426Z,95755.75
2022-12-08T12:06:52.964Z,95761.88
2022-12-08T12:07:52.158Z,95760.22
2022-12-08T12:09:07.983Z,95755.91
2022-12-08T12:10:31.363Z,95754.94
2022-12-08T12:12:06.765Z,95755.63
2022-12-08T12:13:28.456Z,95753.13
2022-12-08T12:14:45.646Z,95746.84
2022-12-08T12:15:52.869Z,95755.47
2022-12-08T12:16:54.474Z,95749.50
2022-12-08T12:17:59.141Z,95728.19
2022-12-08T12:19:05.139Z,95744.88
2022-12-08T12:20:14.223Z,95730.03
2022-12-08T12:21:40.201Z,95744.19
2022-12-08T12:22:45.006Z,95741.41
2022-12-08T12:23:57.545Z,95741.41
2022-12-08T12:24:59.167Z,95730.72
2022-12-08T12:26:03.937Z,95741.41
2022-12-08T12:27:21.338Z,95738.75
2022-12-08T12:28:26.549Z,95714.16
2022-12-08T12:29:31.551Z,95743.34
2022-12-08T12:31:04.618Z,95733.78
2022-12-08T12:32:08.936Z,95738.59
2022-12-08T12:33:15.873Z,95731.94
2022-12-08T12:34:22.550Z,95697.75
2022-12-08T12:35:35.084Z,95733.31
2022-12-08T12:37:11.252Z,95731.50
2022-12-08T12:38:48.533Z,95723.84
2022-12-08T12:39:57.791Z,95729.00
2022-12-08T12:41:04.129Z,95722.88
2022-12-08T12:42:05.594Z,95721.50
2022-12-08T12:43:10.242Z,95728.16
2022-12-08T12:44:14.693Z,95728.31
2022-12-08T12:45:21.701Z,95722.31
2022-12-08T12:46:23.106Z,95727.19
2022-12-08T12:47:55.572Z,95724.81
2022-12-08T12:49:40.354Z,95712.13
2022-12-08T12:50:51.992Z,95715.09
2022-12-08T12:51:56.183Z,95709.25
2022-12-08T12:53:02.381Z,95693.94